createdAt,value
2022-11-29T00:00:03.198Z,99.5
2022-11-29T00:07:01.798Z,99.547
2022-11-29T00:14:01.682Z,99.547
2022-11-29T00:21:02.198Z,99.743
2022-11-29T00:28:01.901Z,99.743
2022-11-29T00:35:06.654Z,99.863
2022-11-29T00:42:01.599Z,99.863
2022-11-29T00:49:01.797Z,100
2022-11-29T00:56:01.583Z,100
2022-11-29T01:00:02.146Z,100
2022-11-29T01:07:01.628Z,100
2022-11-29T01:14:01.834Z,100
2022-11-29T01:21:02.283Z,100
2022-11-29T01:28:01.828Z,100
2022-11-29T01:35:01.734Z,100
2022-11-29T01:42:02.096Z,100
2022-11-29T01:49:01.696Z,100
2022-11-29T01:56:01.528Z,100
2022-11-29T02:00:02.238Z,100
2022-11-29T02:07:01.881Z,100
2022-11-29T02:14:01.383Z,100
2022-11-29T02:21:02.024Z,100
2022-11-29T02:28:01.581Z,100
2022-11-29T02:35:01.832Z,100
2022-11-29T02:42:01.446Z,100
2022-11-29T02:49:01.464Z,100
2022-11-29T02:56:02.116Z,100
2022-11-29T03:00:01.712Z,100
2022-11-29T03:07:02.260Z,100
2022-11-29T03:14:01.820Z,100
2022-11-29T03:21:01.891Z,100
2022-11-29T03:28:01.379Z,100
2022-11-29T03:35:02.423Z,100
2022-11-29T03:42:01.749Z,100
2022-11-29T03:49:01.790Z,100
2022-11-29T03:56:02.194Z,100
2022-11-29T04:00:01.732Z,100
2022-11-29T04:07:02.168Z,100
2022-11-29T04:14:01.619Z,100
2022-11-29T04:21:01.656Z,100
2022-11-29T04:28:01.805Z,100
2022-11-29T04:35:02.319Z,100
2022-11-29T04:42:01.856Z,100
2022-11-29T04:49:01.772Z,100
2022-11-29T04:56:02.297Z,100
2022-11-29T05:00:01.913Z,100
2022-11-29T05:07:01.351Z,100
2022-11-29T05:14:01.757Z,100
2022-11-29T05:21:02.275Z,100
2022-11-29T05:28:06.982Z,100
2022-11-29T05:35:02.409Z,100
2022-11-29T05:42:01.425Z,100
2022-11-29T05:49:02.151Z,100
2022-11-29T05:56:01.830Z,99.993
2022-11-29T06:00:02.309Z,99.993
2022-11-29T06:07:01.547Z,99.905
2022-11-29T06:14:01.698Z,99.905
2022-11-29T06:21:02.144Z,99.935
2022-11-29T06:28:01.553Z,99.935
2022-11-29T06:35:02.448Z,99.867
2022-11-29T06:42:01.432Z,99.867
2022-11-29T06:49:02.490Z,99.669
2022-11-29T06:56:01.406Z,99.305
2022-11-29T07:00:01.989Z,99.305
2022-11-29T07:07:02.157Z,99.305
2022-11-29T07:14:01.308Z,99.258
2022-11-29T07:21:01.369Z,99.312
2022-11-29T07:28:02.060Z,99.312
2022-11-29T07:35:02.445Z,99.172
2022-11-29T07:42:02.253Z,99.172
2022-11-29T07:49:02.048Z,99.224
2022-11-29T07:56:02.235Z,99.224
2022-11-29T08:00:01.805Z,99.194
2022-11-29T08:07:02.282Z,99.194
2022-11-29T08:14:01.793Z,98.937
2022-11-29T08:21:02.190Z,98.937
2022-11-29T08:28:01.625Z,98.806
2022-11-29T08:35:02.365Z,98.806
2022-11-29T08:42:01.769Z,98.779
2022-11-29T08:49:01.837Z,98.779
2022-11-29T08:56:01.379Z,98.678
2022-11-29T09:00:01.956Z,98.678
2022-11-29T09:07:02.190Z,98.556
2022-11-29T09:14:01.752Z,98.556
2022-11-29T09:21:01.355Z,98.307
2022-11-29T09:28:01.376Z,98.307
2022-11-29T09:35:02.063Z,98.243
2022-11-29T09:42:01.591Z,98.243
2022-11-29T09:49:01.803Z,98.14
2022-11-29T09:56:01.897Z,98.015
2022-11-29T10:00:02.463Z,98.015
2022-11-29T10:07:01.643Z,98.015
2022-11-29T10:14:01.743Z,98.261
2022-11-29T10:21:01.532Z,98.495
2022-11-29T10:28:01.368Z,98.495
2022-11-29T10:35:01.491Z,98.505
2022-11-29T10:42:01.575Z,98.505
2022-11-29T10:49:01.354Z,98.534
2022-11-29T10:56:02.162Z,98.534
2022-11-29T11:00:01.815Z,98.588
2022-11-29T11:07:01.655Z,98.588
2022-11-29T11:14:02.081Z,98.432
2022-11-29T11:21:02.147Z,98.432
2022-11-29T11:28:01.926Z,98.265
2022-11-29T11:35:02.556Z,98.265
2022-11-29T11:42:02.012Z,97.982
2022-11-29T11:49:02.009Z,97.982
2022-11-29T11:56:02.080Z,97.853
2022-11-29T12:00:06.657Z,97.853
2022-11-29T12:07:01.542Z,97.841
2022-11-29T12:14:01.448Z,97.841
2022-11-29T12:21:02.030Z,97.87
2022-11-29T12:28:01.753Z,97.87
2022-11-29T12:35:02.264Z,97.687
2022-11-29T12:42:01.965Z,97.176
2022-11-29T12:49:01.745Z,97.176
2022-11-29T12:56:02.171Z,97.044
2022-11-29T13:00:01.715Z,97.044
2022-11-29T13:07:01.669Z,97.044
2022-11-29T13:14:20.255Z,96.834
2022-11-29T13:21:02.036Z,96.801
2022-11-29T13:28:01.454Z,96.801
2022-11-29T13:35:02.484Z,96.889
2022-11-29T13:42:02.282Z,96.889
2022-11-29T13:49:02.141Z,96.885
2022-11-29T13:56:01.645Z,96.885
2022-11-29T14:00:02.232Z,97.016
2022-11-29T14:07:01.558Z,97.016
2022-11-29T14:14:01.717Z,97.07
2022-11-29T14:21:01.906Z,97.07
2022-11-29T14:28:02.144Z,97.081
2022-11-29T14:35:02.188Z,97.081
2022-11-29T14:42:01.794Z,97.017
2022-11-29T14:49:01.507Z,97.017
2022-11-29T14:56:01.431Z,96.978
2022-11-29T15:00:02.005Z,96.978
2022-11-29T15:07:01.498Z,96.847
2022-11-29T15:14:02.235Z,96.847
2022-11-29T15:21:01.989Z,96.652
2022-11-29T15:28:01.693Z,96.652
2022-11-29T15:35:02.094Z,96.766
2022-11-29T15:42:01.739Z,97.028
2022-11-29T15:49:02.294Z,97.028
2022-11-29T15:56:02.210Z,96.936
2022-11-29T16:00:01.716Z,96.936
2022-11-29T16:07:01.942Z,96.936
2022-11-29T16:14:01.739Z,96.851
2022-11-29T16:21:01.988Z,96.733
2022-11-29T16:28:02.038Z,96.733
2022-11-29T16:35:01.566Z,96.112
2022-11-29T16:42:02.331Z,96.112
2022-11-29T16:49:02.288Z,95.912
2022-11-29T16:56:02.160Z,95.912
2022-11-29T17:00:01.690Z,95.769
2022-11-29T17:07:02.027Z,95.769
2022-11-29T17:14:01.994Z,95.752
2022-11-29T17:21:01.657Z,95.752
2022-11-29T17:28:01.457Z,95.56
2022-11-29T17:35:02.063Z,95.56
2022-11-29T17:42:01.689Z,95.522
2022-11-29T17:49:01.441Z,95.522
2022-11-29T17:56:01.648Z,95.586
2022-11-29T18:00:02.257Z,95.586
2022-11-29T18:07:01.605Z,95.683
2022-11-29T18:14:01.776Z,95.683
2022-11-29T18:21:02.053Z,95.709
2022-11-29T18:28:01.830Z,95.709
2022-11-29T18:35:01.564Z,95.657
2022-11-29T18:42:01.358Z,95.612
2022-11-29T18:49:01.597Z,95.612
2022-11-29T18:56:02.055Z,95.755
2022-11-29T19:00:01.695Z,95.755
2022-11-29T19:07:01.693Z,95.755
2022-11-29T19:14:02.081Z,95.913
2022-11-29T19:21:01.972Z,96.218
2022-11-29T19:28:01.579Z,96.218
2022-11-29T19:35:02.365Z,96.216
2022-11-29T19:42:01.415Z,96.216
2022-11-29T19:49:01.443Z,96.343
2022-11-29T19:56:02.186Z,96.343
2022-11-29T20:00:01.777Z,96.487
2022-11-29T20:07:01.641Z,96.487
2022-11-29T20:14:01.306Z,96.675
2022-11-29T20:21:01.344Z,96.675
2022-11-29T20:28:01.738Z,96.947
2022-11-29T20:35:02.159Z,96.947
2022-11-29T20:42:02.079Z,96.664
2022-11-29T20:49:06.141Z,96.664
2022-11-29T20:56:02.180Z,96.583
2022-11-29T21:00:01.855Z,96.583
2022-11-29T21:07:01.601Z,96.467
2022-11-29T21:14:01.730Z,96.467
2022-11-29T21:21:02.203Z,96.433
2022-11-29T21:28:01.654Z,96.433
2022-11-29T21:35:02.069Z,96.579
2022-11-29T21:42:02.058Z,96.815
2022-11-29T21:49:01.386Z,96.815
2022-11-29T21:56:02.181Z,96.855
2022-11-29T22:00:01.745Z,96.855
2022-11-29T22:07:01.513Z,96.855
2022-11-29T22:14:02.152Z,96.902
2022-11-29T22:21:01.521Z,96.921
2022-11-29T22:28:01.853Z,96.921
2022-11-29T22:35:01.894Z,96.905
2022-11-29T22:42:01.999Z,96.905
2022-11-29T22:49:01.890Z,96.944
2022-11-29T22:56:01.967Z,96.944
2022-11-29T23:00:02.491Z,97.026
2022-11-29T23:07:02.214Z,97.026
2022-11-29T23:14:02.097Z,97.099
2022-11-29T23:21:02.101Z,97.099
2022-11-29T23:28:01.339Z,97.182
2022-11-29T23:35:02.195Z,97.182
2022-11-29T23:42:01.953Z,97.218
2022-11-29T23:49:01.957Z,97.218
2022-11-29T23:56:02.025Z,97.204
